Dixon, IL (61021)

2:55 AM CDT on August 28, 2015 (GMT -0500)
Lee Co EMA Dixon Site | | Change Station
CLOSE
Current Station
Personal Weather Station
Location: Dixon, IL
Elevation: 802 ft
Nearby Weather Stations

Elev 802 ft 41.86 °N, 89.52 °W | Updated 6 seconds ago

Overcast
Overcast
62.5 °F
Feels Like 62.5 °F
N
2.0
Wind Variable Wind from SSE
Gusts 2.0 mph

Today
High -- | Low -- °F
--% Chance of Precip.
Yesterday
High -- | Low -- °F
Precip. -- in
6:19 AM 7:38 PM
Waxing Gibbous, 97% visible
Pressure 30.12 in
Visibility 5.0 miles
Clouds Clear
Dew Point 59 °F
Humidity 88%
Rainfall 0.00 in
Snow Depth Not available.
UV 0 out of 12
Pollen 10.10 out of 12
Air Quality Not available.
Flu Activity Not available.
METAR KRPJ 280735Z AUTO 00000KT 5SM BR CLR 14/13 A3012 RMK AO2 T01400130
Pressure 30.12 in
Visibility 5.0 miles
Clouds Clear
Dew Point 59 °F
Humidity 88%
Rainfall 0.00 in
Snow Depth Not available.
UV 0 out of 12
Pollen 10.10 out of 12
Air Quality Not available.
Flu Activity Not available.
METAR KRPJ 280735Z AUTO 00000KT 5SM BR CLR 14/13 A3012 RMK AO2 T01400130

10-Day Weather Forecast

×

Almanac

Astronomy

Aug. 28, 2015 Rise Set
Actual Time
Civil Twilight
Nautical Twilight
Astronomical Twilight
Moon
Length of Visible Light
Length of Day
Tomorrow will be .
, % of the Moon is Illuminated

Today's Extremes

State Highs State Lows

Community

WunderPhotos

Upload Photos

1,850,348 photos uploaded!

WunderBlogs® & News

Nearby

Air Quality

  Air Quality AQ Index Pollutant
Not available.

Snow Depth

Station Depth Elevation

Earthquake Activity

City Distance Mag. Time & Date
Minimum magnitude displayed is 2.5.

Coastal Water Temperatures

Place Temperature

Stations

Nearby Weather Stations

Station Location Temp. Windchill Dew Point Humidity Wind Precip. Elev Updated Type